sensor_id;sensor_type;location;lat;lon;timestamp;P1;durP1;ratioP1;P2;durP2;ratioP2
51836;SDS011;38941;53.254;6.600;2023-12-14T00:00:05;6.68;;;3.58;;
51836;SDS011;38941;53.254;6.600;2023-12-14T00:02:07;8.73;;;3.28;;
51836;SDS011;38941;53.254;6.600;2023-12-14T00:04:10;9.05;;;3.20;;
51836;SDS011;38941;53.254;6.600;2023-12-14T00:06:11;6.45;;;3.00;;
51836;SDS011;38941;53.254;6.600;2023-12-14T00:08:13;7.30;;;3.10;;
51836;SDS011;38941;53.254;6.600;2023-12-14T00:10:13;8.15;;;2.72;;
51836;SDS011;38941;53.254;6.600;2023-12-14T00:12:14;8.07;;;3.55;;
51836;SDS011;38941;53.254;6.600;2023-12-14T00:14:15;5.18;;;2.80;;
51836;SDS011;38941;53.254;6.600;2023-12-14T00:16:16;7.70;;;3.45;;
51836;SDS011;38941;53.254;6.600;2023-12-14T00:18:17;8.20;;;3.22;;
51836;SDS011;38941;53.254;6.600;2023-12-14T00:20:18;6.47;;;3.15;;
51836;SDS011;38941;53.254;6.600;2023-12-14T00:22:19;7.10;;;3.53;;
51836;SDS011;38941;53.254;6.600;2023-12-14T00:24:20;6.45;;;3.42;;
51836;SDS011;38941;53.254;6.600;2023-12-14T00:26:21;4.90;;;2.78;;
51836;SDS011;38941;53.254;6.600;2023-12-14T00:28:23;9.02;;;3.50;;
51836;SDS011;38941;53.254;6.600;2023-12-14T00:30:23;8.52;;;3.53;;
51836;SDS011;38941;53.254;6.600;2023-12-14T00:32:25;10.30;;;3.55;;
51836;SDS011;38941;53.254;6.600;2023-12-14T00:34:26;7.15;;;3.03;;
51836;SDS011;38941;53.254;6.600;2023-12-14T00:36:26;7.70;;;2.95;;
51836;SDS011;38941;53.254;6.600;2023-12-14T00:38:28;10.68;;;2.92;;
51836;SDS011;38941;53.254;6.600;2023-12-14T00:40:29;8.15;;;2.58;;
51836;SDS011;38941;53.254;6.600;2023-12-14T00:42:29;6.35;;;2.88;;
51836;SDS011;38941;53.254;6.600;2023-12-14T00:44:31;6.97;;;3.88;;
51836;SDS011;38941;53.254;6.600;2023-12-14T00:46:32;6.78;;;3.92;;
51836;SDS011;38941;53.254;6.600;2023-12-14T00:48:32;9.13;;;4.78;;
51836;SDS011;38941;53.254;6.600;2023-12-14T00:50:33;12.15;;;3.53;;
51836;SDS011;38941;53.254;6.600;2023-12-14T00:52:34;8.15;;;3.63;;
51836;SDS011;38941;53.254;6.600;2023-12-14T00:54:34;8.65;;;3.78;;
51836;SDS011;38941;53.254;6.600;2023-12-14T00:56:35;7.22;;;3.55;;
51836;SDS011;38941;53.254;6.600;2023-12-14T00:58:36;11.13;;;4.10;;
51836;SDS011;38941;53.254;6.600;2023-12-14T01:00:37;8.85;;;3.38;;
51836;SDS011;38941;53.254;6.600;2023-12-14T01:02:38;10.07;;;3.88;;
51836;SDS011;38941;53.254;6.600;2023-12-14T01:04:39;9.23;;;4.13;;
51836;SDS011;38941;53.254;6.600;2023-12-14T01:06:39;9.63;;;3.60;;
51836;SDS011;38941;53.254;6.600;2023-12-14T01:08:40;10.48;;;3.85;;
51836;SDS011;38941;53.254;6.600;2023-12-14T01:10:41;12.60;;;5.00;;
51836;SDS011;38941;53.254;6.600;2023-12-14T01:12:42;11.25;;;4.63;;
51836;SDS011;38941;53.254;6.600;2023-12-14T01:14:42;14.68;;;4.57;;
51836;SDS011;38941;53.254;6.600;2023-12-14T01:16:43;10.35;;;4.50;;
51836;SDS011;38941;53.254;6.600;2023-12-14T01:18:44;15.27;;;4.47;;
51836;SDS011;38941;53.254;6.600;2023-12-14T01:20:45;9.00;;;4.25;;
51836;SDS011;38941;53.254;6.600;2023-12-14T01:22:47;15.18;;;4.00;;
51836;SDS011;38941;53.254;6.600;2023-12-14T01:24:48;9.05;;;4.00;;
51836;SDS011;38941;53.254;6.600;2023-12-14T01:26:50;10.43;;;4.15;;
51836;SDS011;38941;53.254;6.600;2023-12-14T01:28:51;10.93;;;3.97;;
51836;SDS011;38941;53.254;6.600;2023-12-14T01:30:52;11.23;;;4.15;;
51836;SDS011;38941;53.254;6.600;2023-12-14T01:32:53;11.85;;;4.25;;
51836;SDS011;38941;53.254;6.600;2023-12-14T01:34:54;11.57;;;4.65;;
51836;SDS011;38941;53.254;6.600;2023-12-14T01:36:54;8.50;;;4.05;;
51836;SDS011;38941;53.254;6.600;2023-12-14T01:38:56;9.48;;;4.22;;
51836;SDS011;38941;53.254;6.600;2023-12-14T01:40:57;12.95;;;4.93;;
51836;SDS011;38941;53.254;6.600;2023-12-14T01:43:06;11.63;;;5.38;;
51836;SDS011;38941;53.254;6.600;2023-12-14T01:47:09;12.15;;;4.68;;
51836;SDS011;38941;53.254;6.600;2023-12-14T01:49:14;12.63;;;4.57;;
51836;SDS011;38941;53.254;6.600;2023-12-14T01:51:15;10.55;;;3.78;;
51836;SDS011;38941;53.254;6.600;2023-12-14T01:53:17;8.35;;;4.15;;
51836;SDS011;38941;53.254;6.600;2023-12-14T01:55:19;13.50;;;5.10;;
51836;SDS011;38941;53.254;6.600;2023-12-14T01:57:23;9.13;;;3.67;;
51836;SDS011;38941;53.254;6.600;2023-12-14T01:59:24;11.48;;;4.00;;
51836;SDS011;38941;53.254;6.600;2023-12-14T02:01:37;10.45;;;3.85;;
51836;SDS011;38941;53.254;6.600;2023-12-14T02:03:48;10.93;;;4.13;;
51836;SDS011;38941;53.254;6.600;2023-12-14T02:05:51;13.43;;;4.40;;
51836;SDS011;38941;53.254;6.600;2023-12-14T02:07:51;10.48;;;4.15;;
51836;SDS011;38941;53.254;6.600;2023-12-14T02:09:52;10.35;;;4.38;;
51836;SDS011;38941;53.254;6.600;2023-12-14T02:11:54;10.95;;;4.03;;
51836;SDS011;38941;53.254;6.600;2023-12-14T02:13:54;9.43;;;3.92;;
51836;SDS011;38941;53.254;6.600;2023-12-14T02:15:55;14.55;;;4.82;;
51836;SDS011;38941;53.254;6.600;2023-12-14T02:17:56;8.73;;;3.80;;
51836;SDS011;38941;53.254;6.600;2023-12-14T02:19:57;9.52;;;4.00;;
51836;SDS011;38941;53.254;6.600;2023-12-14T02:22:00;9.95;;;4.13;;
51836;SDS011;38941;53.254;6.600;2023-12-14T02:24:01;8.55;;;4.03;;
51836;SDS011;38941;53.254;6.600;2023-12-14T02:26:01;10.48;;;4.10;;
51836;SDS011;38941;53.254;6.600;2023-12-14T02:28:02;9.73;;;4.20;;
51836;SDS011;38941;53.254;6.600;2023-12-14T02:30:05;13.00;;;4.32;;
51836;SDS011;38941;53.254;6.600;2023-12-14T02:32:06;11.57;;;3.50;;
51836;SDS011;38941;53.254;6.600;2023-12-14T02:34:07;10.45;;;3.78;;
51836;SDS011;38941;53.254;6.600;2023-12-14T02:36:07;10.15;;;4.25;;
51836;SDS011;38941;53.254;6.600;2023-12-14T02:38:09;14.30;;;3.90;;
51836;SDS011;38941;53.254;6.600;2023-12-14T02:40:11;10.95;;;4.13;;
51836;SDS011;38941;53.254;6.600;2023-12-14T02:42:12;8.65;;;4.32;;
51836;SDS011;38941;53.254;6.600;2023-12-14T02:44:13;10.38;;;4.22;;
51836;SDS011;38941;53.254;6.600;2023-12-14T02:46:15;7.22;;;3.17;;
51836;SDS011;38941;53.254;6.600;2023-12-14T02:48:16;9.38;;;3.92;;
51836;SDS011;38941;53.254;6.600;2023-12-14T02:50:17;10.50;;;4.43;;
51836;SDS011;38941;53.254;6.600;2023-12-14T02:52:18;6.75;;;3.20;;
51836;SDS011;38941;53.254;6.600;2023-12-14T02:54:19;11.40;;;3.72;;
51836;SDS011;38941;53.254;6.600;2023-12-14T02:56:20;10.45;;;3.42;;
51836;SDS011;38941;53.254;6.600;2023-12-14T02:58:22;10.00;;;3.65;;
51836;SDS011;38941;53.254;6.600;2023-12-14T03:00:23;11.18;;;4.80;;
51836;SDS011;38941;53.254;6.600;2023-12-14T03:02:25;8.15;;;3.80;;
51836;SDS011;38941;53.254;6.600;2023-12-14T03:04:25;9.70;;;3.60;;
51836;SDS011;38941;53.254;6.600;2023-12-14T03:06:27;10.68;;;3.47;;
51836;SDS011;38941;53.254;6.600;2023-12-14T03:08:28;13.55;;;3.92;;
51836;SDS011;38941;53.254;6.600;2023-12-14T03:10:30;15.70;;;3.67;;
51836;SDS011;38941;53.254;6.600;2023-12-14T03:12:30;10.75;;;3.78;;
51836;SDS011;38941;53.254;6.600;2023-12-14T03:14:32;9.43;;;4.47;;
51836;SDS011;38941;53.254;6.600;2023-12-14T03:16:34;13.90;;;4.38;;
51836;SDS011;38941;53.254;6.600;2023-12-14T03:18:35;10.02;;;3.72;;
51836;SDS011;38941;53.254;6.600;2023-12-14T03:20:36;8.15;;;3.88;;
51836;SDS011;38941;53.254;6.600;2023-12-14T03:22:37;10.32;;;3.70;;
51836;SDS011;38941;53.254;6.600;2023-12-14T03:24:38;14.38;;;4.82;;
51836;SDS011;38941;53.254;6.600;2023-12-14T03:26:39;10.60;;;4.32;;
51836;SDS011;38941;53.254;6.600;2023-12-14T03:28:40;9.35;;;4.25;;
51836;SDS011;38941;53.254;6.600;2023-12-14T03:30:41;15.32;;;4.95;;
51836;SDS011;38941;53.254;6.600;2023-12-14T03:32:42;13.13;;;4.32;;
51836;SDS011;38941;53.254;6.600;2023-12-14T03:34:44;13.13;;;4.68;;
51836;SDS011;38941;53.254;6.600;2023-12-14T03:36:44;10.13;;;4.45;;
51836;SDS011;38941;53.254;6.600;2023-12-14T03:38:45;13.65;;;4.88;;
51836;SDS011;38941;53.254;6.600;2023-12-14T03:40:46;12.90;;;4.43;;
51836;SDS011;38941;53.254;6.600;2023-12-14T03:42:46;16.35;;;4.53;;
51836;SDS011;38941;53.254;6.600;2023-12-14T03:44:47;16.38;;;5.50;;
51836;SDS011;38941;53.254;6.600;2023-12-14T03:46:48;14.48;;;5.10;;
51836;SDS011;38941;53.254;6.600;2023-12-14T03:48:49;12.55;;;4.72;;
51836;SDS011;38941;53.254;6.600;2023-12-14T03:50:49;11.60;;;4.95;;
51836;SDS011;38941;53.254;6.600;2023-12-14T03:52:50;10.63;;;5.25;;
51836;SDS011;38941;53.254;6.600;2023-12-14T03:54:52;11.48;;;5.20;;
51836;SDS011;38941;53.254;6.600;2023-12-14T03:56:52;9.30;;;4.40;;
51836;SDS011;38941;53.254;6.600;2023-12-14T03:58:53;9.60;;;4.20;;
51836;SDS011;38941;53.254;6.600;2023-12-14T04:00:54;11.57;;;4.60;;
51836;SDS011;38941;53.254;6.600;2023-12-14T04:02:55;12.48;;;4.90;;
51836;SDS011;38941;53.254;6.600;2023-12-14T04:04:56;9.55;;;4.45;;
51836;SDS011;38941;53.254;6.600;2023-12-14T04:06:57;11.73;;;4.90;;
51836;SDS011;38941;53.254;6.600;2023-12-14T04:08:57;14.88;;;5.40;;
51836;SDS011;38941;53.254;6.600;2023-12-14T04:10:58;12.95;;;5.07;;
51836;SDS011;38941;53.254;6.600;2023-12-14T04:12:59;14.85;;;5.43;;
51836;SDS011;38941;53.254;6.600;2023-12-14T04:15:03;15.32;;;5.20;;
51836;SDS011;38941;53.254;6.600;2023-12-14T04:17:07;14.87;;;5.20;;
51836;SDS011;38941;53.254;6.600;2023-12-14T04:19:08;12.23;;;4.85;;
51836;SDS011;38941;53.254;6.600;2023-12-14T04:21:11;16.35;;;5.25;;
51836;SDS011;38941;53.254;6.600;2023-12-14T04:23:13;13.38;;;5.40;;
51836;SDS011;38941;53.254;6.600;2023-12-14T04:25:13;13.45;;;4.43;;
51836;SDS011;38941;53.254;6.600;2023-12-14T04:27:14;14.68;;;5.38;;
51836;SDS011;38941;53.254;6.600;2023-12-14T04:29:17;10.63;;;4.50;;
51836;SDS011;38941;53.254;6.600;2023-12-14T04:31:18;9.68;;;4.68;;
51836;SDS011;38941;53.254;6.600;2023-12-14T04:33:19;12.10;;;5.28;;
51836;SDS011;38941;53.254;6.600;2023-12-14T04:35:20;13.68;;;4.20;;
51836;SDS011;38941;53.254;6.600;2023-12-14T04:37:22;16.23;;;5.43;;
51836;SDS011;38941;53.254;6.600;2023-12-14T04:39:26;12.98;;;4.82;;
51836;SDS011;38941;53.254;6.600;2023-12-14T04:41:27;14.45;;;4.82;;
51836;SDS011;38941;53.254;6.600;2023-12-14T04:43:27;11.93;;;5.18;;
51836;SDS011;38941;53.254;6.600;2023-12-14T04:45:30;12.38;;;4.88;;
51836;SDS011;38941;53.254;6.600;2023-12-14T04:47:31;11.75;;;4.68;;
51836;SDS011;38941;53.254;6.600;2023-12-14T04:49:32;11.40;;;4.65;;
51836;SDS011;38941;53.254;6.600;2023-12-14T04:51:34;12.30;;;5.22;;
51836;SDS011;38941;53.254;6.600;2023-12-14T04:53:35;14.93;;;5.50;;
51836;SDS011;38941;53.254;6.600;2023-12-14T04:55:35;10.85;;;5.00;;
51836;SDS011;38941;53.254;6.600;2023-12-14T04:57:37;13.13;;;4.88;;
51836;SDS011;38941;53.254;6.600;2023-12-14T04:59:40;13.95;;;4.88;;
51836;SDS011;38941;53.254;6.600;2023-12-14T05:01:42;14.32;;;5.15;;
51836;SDS011;38941;53.254;6.600;2023-12-14T05:03:43;11.55;;;5.00;;
51836;SDS011;38941;53.254;6.600;2023-12-14T05:05:45;13.15;;;4.63;;
51836;SDS011;38941;53.254;6.600;2023-12-14T05:07:47;13.15;;;4.60;;
51836;SDS011;38941;53.254;6.600;2023-12-14T05:09:47;13.25;;;5.22;;
51836;SDS011;38941;53.254;6.600;2023-12-14T05:11:49;13.73;;;5.68;;
51836;SDS011;38941;53.254;6.600;2023-12-14T05:13:49;14.90;;;5.50;;
51836;SDS011;38941;53.254;6.600;2023-12-14T05:15:51;16.15;;;5.90;;
51836;SDS011;38941;53.254;6.600;2023-12-14T05:17:52;22.40;;;5.13;;
51836;SDS011;38941;53.254;6.600;2023-12-14T05:19:53;11.60;;;5.53;;
51836;SDS011;38941;53.254;6.600;2023-12-14T05:21:53;15.52;;;5.75;;
51836;SDS011;38941;53.254;6.600;2023-12-14T05:23:55;14.27;;;5.20;;
51836;SDS011;38941;53.254;6.600;2023-12-14T05:25:56;11.30;;;4.55;;
51836;SDS011;38941;53.254;6.600;2023-12-14T05:27:57;14.73;;;5.45;;
51836;SDS011;38941;53.254;6.600;2023-12-14T05:29:58;12.80;;;5.10;;
51836;SDS011;38941;53.254;6.600;2023-12-14T05:31:59;11.63;;;4.80;;
51836;SDS011;38941;53.254;6.600;2023-12-14T05:33:59;13.18;;;5.10;;
51836;SDS011;38941;53.254;6.600;2023-12-14T05:36:00;14.75;;;5.18;;
51836;SDS011;38941;53.254;6.600;2023-12-14T05:38:01;13.65;;;5.63;;
51836;SDS011;38941;53.254;6.600;2023-12-14T05:40:02;13.77;;;4.45;;
51836;SDS011;38941;53.254;6.600;2023-12-14T05:42:02;13.57;;;5.55;;
51836;SDS011;38941;53.254;6.600;2023-12-14T05:44:03;12.48;;;5.25;;
51836;SDS011;38941;53.254;6.600;2023-12-14T05:46:04;13.38;;;5.25;;
51836;SDS011;38941;53.254;6.600;2023-12-14T05:48:06;17.60;;;5.25;;
51836;SDS011;38941;53.254;6.600;2023-12-14T05:50:07;17.73;;;4.82;;
51836;SDS011;38941;53.254;6.600;2023-12-14T05:52:10;13.18;;;4.80;;
51836;SDS011;38941;53.254;6.600;2023-12-14T05:54:11;10.75;;;4.18;;
51836;SDS011;38941;53.254;6.600;2023-12-14T05:56:12;15.15;;;5.50;;
51836;SDS011;38941;53.254;6.600;2023-12-14T05:58:13;13.07;;;5.20;;
51836;SDS011;38941;53.254;6.600;2023-12-14T06:00:14;14.82;;;5.00;;
51836;SDS011;38941;53.254;6.600;2023-12-14T06:02:15;10.63;;;5.32;;
51836;SDS011;38941;53.254;6.600;2023-12-14T06:04:17;13.30;;;5.53;;
51836;SDS011;38941;53.254;6.600;2023-12-14T06:06:18;12.13;;;5.10;;
51836;SDS011;38941;53.254;6.600;2023-12-14T06:08:20;14.40;;;5.47;;
51836;SDS011;38941;53.254;6.600;2023-12-14T06:10:21;17.35;;;5.88;;
51836;SDS011;38941;53.254;6.600;2023-12-14T06:12:22;16.20;;;5.82;;
51836;SDS011;38941;53.254;6.600;2023-12-14T06:14:22;15.75;;;5.20;;
51836;SDS011;38941;53.254;6.600;2023-12-14T06:16:24;14.80;;;5.15;;
51836;SDS011;38941;53.254;6.600;2023-12-14T06:18:25;15.77;;;6.38;;
51836;SDS011;38941;53.254;6.600;2023-12-14T06:20:26;15.45;;;5.45;;
51836;SDS011;38941;53.254;6.600;2023-12-14T06:22:26;13.65;;;5.88;;
51836;SDS011;38941;53.254;6.600;2023-12-14T06:24:27;11.02;;;5.00;;
51836;SDS011;38941;53.254;6.600;2023-12-14T06:26:29;17.17;;;5.13;;
51836;SDS011;38941;53.254;6.600;2023-12-14T06:28:29;11.30;;;5.30;;
51836;SDS011;38941;53.254;6.600;2023-12-14T06:30:31;14.93;;;5.45;;
51836;SDS011;38941;53.254;6.600;2023-12-14T06:32:31;15.95;;;5.13;;
51836;SDS011;38941;53.254;6.600;2023-12-14T06:34:32;11.07;;;4.22;;
51836;SDS011;38941;53.254;6.600;2023-12-14T06:36:33;16.05;;;5.10;;
51836;SDS011;38941;53.254;6.600;2023-12-14T06:38:34;18.23;;;6.43;;
51836;SDS011;38941;53.254;6.600;2023-12-14T06:40:37;14.35;;;5.68;;
51836;SDS011;38941;53.254;6.600;2023-12-14T06:42:37;16.25;;;6.63;;
51836;SDS011;38941;53.254;6.600;2023-12-14T06:44:39;17.15;;;5.22;;
51836;SDS011;38941;53.254;6.600;2023-12-14T06:46:39;11.52;;;5.22;;
51836;SDS011;38941;53.254;6.600;2023-12-14T06:48:40;12.75;;;5.55;;
51836;SDS011;38941;53.254;6.600;2023-12-14T06:50:42;17.23;;;5.82;;
51836;SDS011;38941;53.254;6.600;2023-12-14T06:52:42;16.02;;;5.20;;
51836;SDS011;38941;53.254;6.600;2023-12-14T06:54:43;13.80;;;5.30;;
51836;SDS011;38941;53.254;6.600;2023-12-14T06:56:44;14.80;;;6.15;;
51836;SDS011;38941;53.254;6.600;2023-12-14T06:58:44;21.70;;;5.93;;
51836;SDS011;38941;53.254;6.600;2023-12-14T07:00:45;10.80;;;4.78;;
51836;SDS011;38941;53.254;6.600;2023-12-14T07:02:48;14.77;;;5.97;;
51836;SDS011;38941;53.254;6.600;2023-12-14T07:04:48;13.20;;;5.22;;
51836;SDS011;38941;53.254;6.600;2023-12-14T07:06:50;18.27;;;5.70;;
51836;SDS011;38941;53.254;6.600;2023-12-14T07:08:51;14.05;;;5.40;;
51836;SDS011;38941;53.254;6.600;2023-12-14T07:10:52;13.73;;;5.53;;
51836;SDS011;38941;53.254;6.600;2023-12-14T07:12:54;13.43;;;5.60;;
51836;SDS011;38941;53.254;6.600;2023-12-14T07:14:54;15.60;;;6.07;;
51836;SDS011;38941;53.254;6.600;2023-12-14T07:16:56;13.73;;;5.80;;
51836;SDS011;38941;53.254;6.600;2023-12-14T07:18:56;18.33;;;6.18;;
51836;SDS011;38941;53.254;6.600;2023-12-14T07:20:58;14.65;;;5.35;;
51836;SDS011;38941;53.254;6.600;2023-12-14T07:22:59;15.50;;;5.40;;
51836;SDS011;38941;53.254;6.600;2023-12-14T07:25:00;14.00;;;6.13;;
51836;SDS011;38941;53.254;6.600;2023-12-14T07:27:01;15.98;;;5.35;;
51836;SDS011;38941;53.254;6.600;2023-12-14T07:29:02;16.75;;;5.50;;
51836;SDS011;38941;53.254;6.600;2023-12-14T07:31:03;12.80;;;5.15;;
51836;SDS011;38941;53.254;6.600;2023-12-14T07:33:04;16.42;;;5.53;;
51836;SDS011;38941;53.254;6.600;2023-12-14T07:35:05;13.10;;;4.90;;
51836;SDS011;38941;53.254;6.600;2023-12-14T07:37:06;15.43;;;6.13;;
51836;SDS011;38941;53.254;6.600;2023-12-14T07:39:07;13.40;;;6.10;;
51836;SDS011;38941;53.254;6.600;2023-12-14T07:41:10;16.20;;;5.63;;
51836;SDS011;38941;53.254;6.600;2023-12-14T07:43:10;15.90;;;5.97;;
51836;SDS011;38941;53.254;6.600;2023-12-14T07:45:11;13.05;;;6.15;;
51836;SDS011;38941;53.254;6.600;2023-12-14T07:47:12;14.70;;;6.63;;
51836;SDS011;38941;53.254;6.600;2023-12-14T07:49:14;18.08;;;7.32;;
51836;SDS011;38941;53.254;6.600;2023-12-14T07:51:15;15.15;;;5.53;;
51836;SDS011;38941;53.254;6.600;2023-12-14T07:53:15;22.95;;;6.38;;
51836;SDS011;38941;53.254;6.600;2023-12-14T07:55:17;16.17;;;6.50;;
51836;SDS011;38941;53.254;6.600;2023-12-14T07:57:18;14.50;;;5.60;;
51836;SDS011;38941;53.254;6.600;2023-12-14T07:59:19;18.52;;;6.50;;
51836;SDS011;38941;53.254;6.600;2023-12-14T08:01:20;18.38;;;6.22;;
51836;SDS011;38941;53.254;6.600;2023-12-14T08:03:21;17.60;;;6.15;;
51836;SDS011;38941;53.254;6.600;2023-12-14T08:05:22;13.82;;;5.65;;
51836;SDS011;38941;53.254;6.600;2023-12-14T08:07:23;18.58;;;6.65;;
51836;SDS011;38941;53.254;6.600;2023-12-14T08:09:29;18.95;;;5.93;;
51836;SDS011;38941;53.254;6.600;2023-12-14T08:11:29;15.52;;;6.50;;
51836;SDS011;38941;53.254;6.600;2023-12-14T08:13:30;20.52;;;6.25;;
51836;SDS011;38941;53.254;6.600;2023-12-14T08:15:31;17.52;;;5.95;;
51836;SDS011;38941;53.254;6.600;2023-12-14T08:17:32;14.52;;;6.22;;
51836;SDS011;38941;53.254;6.600;2023-12-14T08:19:32;15.32;;;6.45;;
51836;SDS011;38941;53.254;6.600;2023-12-14T08:21:34;17.00;;;6.38;;
51836;SDS011;38941;53.254;6.600;2023-12-14T08:23:36;17.05;;;6.10;;
51836;SDS011;38941;53.254;6.600;2023-12-14T08:25:37;18.02;;;6.55;;
51836;SDS011;38941;53.254;6.600;2023-12-14T08:27:38;20.48;;;6.70;;
51836;SDS011;38941;53.254;6.600;2023-12-14T08:29:38;17.48;;;6.65;;
51836;SDS011;38941;53.254;6.600;2023-12-14T08:31:40;15.80;;;6.50;;
51836;SDS011;38941;53.254;6.600;2023-12-14T08:33:42;15.52;;;7.03;;
51836;SDS011;38941;53.254;6.600;2023-12-14T08:35:42;17.63;;;6.15;;
51836;SDS011;38941;53.254;6.600;2023-12-14T08:37:44;16.40;;;6.35;;
51836;SDS011;38941;53.254;6.600;2023-12-14T08:39:45;16.08;;;6.65;;
51836;SDS011;38941;53.254;6.600;2023-12-14T08:41:46;22.17;;;7.32;;
51836;SDS011;38941;53.254;6.600;2023-12-14T08:43:48;19.77;;;6.50;;
51836;SDS011;38941;53.254;6.600;2023-12-14T08:45:49;26.92;;;7.00;;
51836;SDS011;38941;53.254;6.600;2023-12-14T08:47:52;17.05;;;7.50;;
51836;SDS011;38941;53.254;6.600;2023-12-14T08:49:53;19.80;;;7.03;;
51836;SDS011;38941;53.254;6.600;2023-12-14T08:51:54;17.98;;;6.53;;
51836;SDS011;38941;53.254;6.600;2023-12-14T08:53:55;24.08;;;7.50;;
51836;SDS011;38941;53.254;6.600;2023-12-14T08:55:57;14.20;;;6.68;;
51836;SDS011;38941;53.254;6.600;2023-12-14T08:57:57;16.05;;;6.28;;
51836;SDS011;38941;53.254;6.600;2023-12-14T08:59:58;16.90;;;6.63;;
51836;SDS011;38941;53.254;6.600;2023-12-14T09:01:59;20.08;;;7.93;;
51836;SDS011;38941;53.254;6.600;2023-12-14T09:04:01;21.00;;;6.85;;
51836;SDS011;38941;53.254;6.600;2023-12-14T09:06:02;21.73;;;7.22;;
51836;SDS011;38941;53.254;6.600;2023-12-14T09:08:06;16.77;;;7.20;;
51836;SDS011;38941;53.254;6.600;2023-12-14T09:10:08;23.27;;;7.38;;
51836;SDS011;38941;53.254;6.600;2023-12-14T09:12:09;19.70;;;7.22;;
51836;SDS011;38941;53.254;6.600;2023-12-14T09:14:10;17.13;;;7.05;;
51836;SDS011;38941;53.254;6.600;2023-12-14T09:16:10;17.10;;;7.13;;
51836;SDS011;38941;53.254;6.600;2023-12-14T09:18:13;20.52;;;5.95;;
51836;SDS011;38941;53.254;6.600;2023-12-14T09:20:13;14.10;;;5.93;;
51836;SDS011;38941;53.254;6.600;2023-12-14T09:22:14;16.77;;;6.97;;
51836;SDS011;38941;53.254;6.600;2023-12-14T09:24:15;14.98;;;6.20;;
51836;SDS011;38941;53.254;6.600;2023-12-14T09:26:16;22.13;;;6.30;;
51836;SDS011;38941;53.254;6.600;2023-12-14T09:28:17;20.58;;;6.57;;
51836;SDS011;38941;53.254;6.600;2023-12-14T09:30:19;14.98;;;6.05;;
51836;SDS011;38941;53.254;6.600;2023-12-14T09:32:20;18.75;;;7.18;;
51836;SDS011;38941;53.254;6.600;2023-12-14T09:34:20;20.92;;;7.25;;
51836;SDS011;38941;53.254;6.600;2023-12-14T09:36:23;12.85;;;5.95;;
51836;SDS011;38941;53.254;6.600;2023-12-14T09:38:25;19.98;;;6.55;;
51836;SDS011;38941;53.254;6.600;2023-12-14T09:40:26;18.75;;;7.53;;
51836;SDS011;38941;53.254;6.600;2023-12-14T09:42:27;14.82;;;6.22;;
51836;SDS011;38941;53.254;6.600;2023-12-14T09:44:28;17.00;;;5.75;;
51836;SDS011;38941;53.254;6.600;2023-12-14T09:46:29;23.38;;;7.35;;
51836;SDS011;38941;53.254;6.600;2023-12-14T09:48:31;16.15;;;5.53;;
51836;SDS011;38941;53.254;6.600;2023-12-14T09:50:33;18.25;;;7.03;;
51836;SDS011;38941;53.254;6.600;2023-12-14T09:52:35;12.27;;;6.18;;
51836;SDS011;38941;53.254;6.600;2023-12-14T09:54:36;18.20;;;7.20;;
51836;SDS011;38941;53.254;6.600;2023-12-14T09:56:45;21.55;;;7.50;;
51836;SDS011;38941;53.254;6.600;2023-12-14T09:58:47;18.40;;;6.50;;
51836;SDS011;38941;53.254;6.600;2023-12-14T10:00:47;14.85;;;6.28;;
51836;SDS011;38941;53.254;6.600;2023-12-14T10:02:49;18.92;;;6.13;;
51836;SDS011;38941;53.254;6.600;2023-12-14T10:04:50;14.25;;;6.32;;
51836;SDS011;38941;53.254;6.600;2023-12-14T10:06:51;18.88;;;6.38;;
51836;SDS011;38941;53.254;6.600;2023-12-14T10:08:54;17.48;;;6.53;;
51836;SDS011;38941;53.254;6.600;2023-12-14T10:11:00;14.85;;;6.13;;
51836;SDS011;38941;53.254;6.600;2023-12-14T10:13:02;16.02;;;6.03;;
51836;SDS011;38941;53.254;6.600;2023-12-14T10:15:03;19.13;;;6.53;;
51836;SDS011;38941;53.254;6.600;2023-12-14T10:17:21;18.02;;;6.07;;
51836;SDS011;38941;53.254;6.600;2023-12-14T10:19:25;15.90;;;6.87;;
51836;SDS011;38941;53.254;6.600;2023-12-14T10:21:26;21.40;;;7.60;;
51836;SDS011;38941;53.254;6.600;2023-12-14T10:23:29;19.13;;;6.43;;
51836;SDS011;38941;53.254;6.600;2023-12-14T10:25:30;16.85;;;6.75;;
51836;SDS011;38941;53.254;6.600;2023-12-14T10:27:32;17.77;;;6.85;;
51836;SDS011;38941;53.254;6.600;2023-12-14T10:29:32;17.40;;;5.70;;
51836;SDS011;38941;53.254;6.600;2023-12-14T10:31:37;15.43;;;7.00;;
51836;SDS011;38941;53.254;6.600;2023-12-14T10:33:39;15.48;;;6.75;;
51836;SDS011;38941;53.254;6.600;2023-12-14T10:35:40;17.00;;;6.55;;
51836;SDS011;38941;53.254;6.600;2023-12-14T10:37:42;13.45;;;5.55;;
51836;SDS011;38941;53.254;6.600;2023-12-14T10:39:44;15.77;;;6.10;;
51836;SDS011;38941;53.254;6.600;2023-12-14T10:41:46;23.33;;;6.53;;
51836;SDS011;38941;53.254;6.600;2023-12-14T10:43:50;15.30;;;6.70;;
51836;SDS011;38941;53.254;6.600;2023-12-14T10:45:55;16.85;;;6.55;;
51836;SDS011;38941;53.254;6.600;2023-12-14T10:47:58;16.80;;;6.93;;
51836;SDS011;38941;53.254;6.600;2023-12-14T10:50:00;16.10;;;6.97;;
51836;SDS011;38941;53.254;6.600;2023-12-14T10:52:01;16.52;;;6.20;;
51836;SDS011;38941;53.254;6.600;2023-12-14T10:54:03;15.95;;;6.45;;
51836;SDS011;38941;53.254;6.600;2023-12-14T10:56:05;14.40;;;6.55;;
51836;SDS011;38941;53.254;6.600;2023-12-14T10:58:10;15.23;;;6.72;;
51836;SDS011;38941;53.254;6.600;2023-12-14T11:00:11;14.85;;;6.22;;
51836;SDS011;38941;53.254;6.600;2023-12-14T11:02:12;16.90;;;6.80;;
51836;SDS011;38941;53.254;6.600;2023-12-14T11:04:15;22.08;;;7.40;;
51836;SDS011;38941;53.254;6.600;2023-12-14T11:06:20;21.02;;;7.03;;
51836;SDS011;38941;53.254;6.600;2023-12-14T11:08:29;13.82;;;6.70;;
51836;SDS011;38941;53.254;6.600;2023-12-14T11:10:43;18.75;;;5.63;;
51836;SDS011;38941;53.254;6.600;2023-12-14T11:13:02;14.27;;;6.30;;
51836;SDS011;38941;53.254;6.600;2023-12-14T11:15:06;12.55;;;5.78;;
51836;SDS011;38941;53.254;6.600;2023-12-14T11:17:08;22.88;;;7.20;;
51836;SDS011;38941;53.254;6.600;2023-12-14T11:21:26;17.48;;;6.53;;
51836;SDS011;38941;53.254;6.600;2023-12-14T11:23:28;15.63;;;5.93;;
51836;SDS011;38941;53.254;6.600;2023-12-14T11:25:42;17.52;;;6.60;;
51836;SDS011;38941;53.254;6.600;2023-12-14T11:27:43;19.95;;;6.63;;
51836;SDS011;38941;53.254;6.600;2023-12-14T11:29:45;23.23;;;7.75;;
51836;SDS011;38941;53.254;6.600;2023-12-14T11:31:47;18.23;;;7.05;;
51836;SDS011;38941;53.254;6.600;2023-12-14T11:33:48;18.52;;;8.15;;
51836;SDS011;38941;53.254;6.600;2023-12-14T11:35:52;20.92;;;7.30;;
51836;SDS011;38941;53.254;6.600;2023-12-14T11:37:53;23.55;;;7.82;;
51836;SDS011;38941;53.254;6.600;2023-12-14T11:39:53;17.10;;;7.40;;
51836;SDS011;38941;53.254;6.600;2023-12-14T11:42:04;21.10;;;7.60;;
51836;SDS011;38941;53.254;6.600;2023-12-14T11:44:09;16.23;;;6.95;;
51836;SDS011;38941;53.254;6.600;2023-12-14T11:46:11;22.05;;;7.43;;
51836;SDS011;38941;53.254;6.600;2023-12-14T11:48:12;18.73;;;8.18;;
51836;SDS011;38941;53.254;6.600;2023-12-14T11:50:14;17.15;;;7.78;;
51836;SDS011;38941;53.254;6.600;2023-12-14T11:52:18;17.33;;;7.05;;
51836;SDS011;38941;53.254;6.600;2023-12-14T11:54:18;17.75;;;7.93;;
51836;SDS011;38941;53.254;6.600;2023-12-14T11:56:20;19.17;;;7.45;;
51836;SDS011;38941;53.254;6.600;2023-12-14T11:58:23;18.25;;;6.60;;
51836;SDS011;38941;53.254;6.600;2023-12-14T12:00:28;21.50;;;9.10;;
51836;SDS011;38941;53.254;6.600;2023-12-14T12:02:30;17.92;;;7.00;;
51836;SDS011;38941;53.254;6.600;2023-12-14T12:04:31;20.77;;;8.23;;
51836;SDS011;38941;53.254;6.600;2023-12-14T12:06:31;22.23;;;7.90;;